sensor_id;sensor_type;location;lat;lon;timestamp;P1;durP1;ratioP1;P2;durP2;ratioP2
52318;SDS011;38258;51.148;14.068;2024-01-06T00:01:20;13.90;;;7.50;;
52318;SDS011;38258;51.148;14.068;2024-01-06T00:03:48;14.98;;;6.45;;
52318;SDS011;38258;51.148;14.068;2024-01-06T00:06:15;17.33;;;7.28;;
52318;SDS011;38258;51.148;14.068;2024-01-06T00:08:41;14.23;;;7.38;;
52318;SDS011;38258;51.148;14.068;2024-01-06T00:11:08;16.30;;;7.78;;
52318;SDS011;38258;51.148;14.068;2024-01-06T00:13:35;14.35;;;7.28;;
52318;SDS011;38258;51.148;14.068;2024-01-06T00:16:02;12.13;;;5.85;;
52318;SDS011;38258;51.148;14.068;2024-01-06T00:18:29;15.65;;;7.60;;
52318;SDS011;38258;51.148;14.068;2024-01-06T00:20:57;16.48;;;7.85;;
52318;SDS011;38258;51.148;14.068;2024-01-06T00:23:23;21.20;;;7.75;;
52318;SDS011;38258;51.148;14.068;2024-01-06T00:25:50;19.42;;;7.10;;
52318;SDS011;38258;51.148;14.068;2024-01-06T00:28:16;16.63;;;7.97;;
52318;SDS011;38258;51.148;14.068;2024-01-06T00:30:43;18.00;;;8.20;;
52318;SDS011;38258;51.148;14.068;2024-01-06T00:33:09;18.23;;;8.10;;
52318;SDS011;38258;51.148;14.068;2024-01-06T00:35:36;19.02;;;7.80;;
52318;SDS011;38258;51.148;14.068;2024-01-06T00:38:04;15.02;;;7.18;;
52318;SDS011;38258;51.148;14.068;2024-01-06T00:40:31;15.32;;;8.05;;
52318;SDS011;38258;51.148;14.068;2024-01-06T00:42:58;14.52;;;7.85;;
52318;SDS011;38258;51.148;14.068;2024-01-06T00:45:24;17.75;;;7.82;;
52318;SDS011;38258;51.148;14.068;2024-01-06T00:47:51;15.70;;;7.72;;
52318;SDS011;38258;51.148;14.068;2024-01-06T00:50:17;16.85;;;8.57;;
52318;SDS011;38258;51.148;14.068;2024-01-06T00:52:44;17.20;;;8.00;;
52318;SDS011;38258;51.148;14.068;2024-01-06T00:55:12;18.90;;;8.10;;
52318;SDS011;38258;51.148;14.068;2024-01-06T00:57:39;19.42;;;8.48;;
52318;SDS011;38258;51.148;14.068;2024-01-06T01:00:06;21.58;;;8.52;;
52318;SDS011;38258;51.148;14.068;2024-01-06T01:02:33;19.85;;;8.77;;
52318;SDS011;38258;51.148;14.068;2024-01-06T01:05:00;20.38;;;8.20;;
52318;SDS011;38258;51.148;14.068;2024-01-06T01:07:27;18.40;;;8.70;;
52318;SDS011;38258;51.148;14.068;2024-01-06T01:09:53;23.15;;;8.13;;
52318;SDS011;38258;51.148;14.068;2024-01-06T01:12:22;19.48;;;8.48;;
52318;SDS011;38258;51.148;14.068;2024-01-06T01:14:49;15.88;;;8.05;;
52318;SDS011;38258;51.148;14.068;2024-01-06T01:17:17;23.10;;;9.27;;
52318;SDS011;38258;51.148;14.068;2024-01-06T01:19:43;18.27;;;8.48;;
52318;SDS011;38258;51.148;14.068;2024-01-06T01:22:10;19.30;;;8.25;;
52318;SDS011;38258;51.148;14.068;2024-01-06T01:24:37;20.83;;;8.93;;
52318;SDS011;38258;51.148;14.068;2024-01-06T01:27:04;15.50;;;7.43;;
52318;SDS011;38258;51.148;14.068;2024-01-06T01:29:32;19.92;;;9.05;;
52318;SDS011;38258;51.148;14.068;2024-01-06T01:31:58;19.63;;;8.90;;
52318;SDS011;38258;51.148;14.068;2024-01-06T01:34:25;24.52;;;9.27;;
52318;SDS011;38258;51.148;14.068;2024-01-06T01:36:51;19.63;;;9.20;;
52318;SDS011;38258;51.148;14.068;2024-01-06T01:39:18;20.90;;;9.40;;
52318;SDS011;38258;51.148;14.068;2024-01-06T01:41:45;22.98;;;9.95;;
52318;SDS011;38258;51.148;14.068;2024-01-06T01:44:11;24.20;;;9.40;;
52318;SDS011;38258;51.148;14.068;2024-01-06T01:46:39;26.50;;;9.30;;
52318;SDS011;38258;51.148;14.068;2024-01-06T01:49:06;21.30;;;9.77;;
52318;SDS011;38258;51.148;14.068;2024-01-06T01:51:33;21.48;;;10.30;;
52318;SDS011;38258;51.148;14.068;2024-01-06T01:54:01;16.73;;;8.27;;
52318;SDS011;38258;51.148;14.068;2024-01-06T01:56:28;24.52;;;10.30;;
52318;SDS011;38258;51.148;14.068;2024-01-06T01:58:59;22.55;;;9.98;;
52318;SDS011;38258;51.148;14.068;2024-01-06T02:01:27;20.92;;;9.05;;
52318;SDS011;38258;51.148;14.068;2024-01-06T02:03:55;22.77;;;9.50;;
52318;SDS011;38258;51.148;14.068;2024-01-06T02:06:22;19.77;;;9.32;;
52318;SDS011;38258;51.148;14.068;2024-01-06T02:08:49;20.60;;;9.57;;
52318;SDS011;38258;51.148;14.068;2024-01-06T02:11:16;20.20;;;9.80;;
52318;SDS011;38258;51.148;14.068;2024-01-06T02:13:42;25.85;;;10.38;;
52318;SDS011;38258;51.148;14.068;2024-01-06T02:16:09;22.63;;;8.88;;
52318;SDS011;38258;51.148;14.068;2024-01-06T02:18:35;21.15;;;9.68;;
52318;SDS011;38258;51.148;14.068;2024-01-06T02:21:03;19.00;;;9.50;;
52318;SDS011;38258;51.148;14.068;2024-01-06T02:23:34;20.63;;;8.95;;
52318;SDS011;38258;51.148;14.068;2024-01-06T02:26:02;20.15;;;9.55;;
52318;SDS011;38258;51.148;14.068;2024-01-06T02:28:29;18.45;;;8.93;;
52318;SDS011;38258;51.148;14.068;2024-01-06T02:30:56;24.60;;;10.15;;
52318;SDS011;38258;51.148;14.068;2024-01-06T02:33:22;19.83;;;9.45;;
52318;SDS011;38258;51.148;14.068;2024-01-06T02:35:49;23.23;;;9.90;;
52318;SDS011;38258;51.148;14.068;2024-01-06T02:38:16;22.50;;;10.20;;
52318;SDS011;38258;51.148;14.068;2024-01-06T02:40:44;24.05;;;10.10;;
52318;SDS011;38258;51.148;14.068;2024-01-06T02:43:10;20.73;;;9.15;;
52318;SDS011;38258;51.148;14.068;2024-01-06T02:45:37;18.70;;;8.80;;
52318;SDS011;38258;51.148;14.068;2024-01-06T02:48:04;20.17;;;9.23;;
52318;SDS011;38258;51.148;14.068;2024-01-06T02:50:31;21.20;;;8.88;;
52318;SDS011;38258;51.148;14.068;2024-01-06T02:52:57;21.98;;;9.02;;
52318;SDS011;38258;51.148;14.068;2024-01-06T02:55:24;20.83;;;8.95;;
52318;SDS011;38258;51.148;14.068;2024-01-06T02:57:52;18.75;;;8.73;;
52318;SDS011;38258;51.148;14.068;2024-01-06T03:00:18;21.58;;;9.40;;
52318;SDS011;38258;51.148;14.068;2024-01-06T03:02:45;22.25;;;9.48;;
52318;SDS011;38258;51.148;14.068;2024-01-06T03:05:12;23.25;;;9.13;;
52318;SDS011;38258;51.148;14.068;2024-01-06T03:07:38;22.27;;;8.85;;
52318;SDS011;38258;51.148;14.068;2024-01-06T03:10:05;19.48;;;8.75;;
52318;SDS011;38258;51.148;14.068;2024-01-06T03:12:32;20.55;;;9.07;;
52318;SDS011;38258;51.148;14.068;2024-01-06T03:15:00;21.40;;;8.63;;
52318;SDS011;38258;51.148;14.068;2024-01-06T03:17:26;18.27;;;8.55;;
52318;SDS011;38258;51.148;14.068;2024-01-06T03:19:54;19.90;;;8.73;;
52318;SDS011;38258;51.148;14.068;2024-01-06T03:22:20;18.33;;;8.63;;
52318;SDS011;38258;51.148;14.068;2024-01-06T03:24:47;19.50;;;9.18;;
52318;SDS011;38258;51.148;14.068;2024-01-06T03:27:13;20.83;;;9.05;;
52318;SDS011;38258;51.148;14.068;2024-01-06T03:29:40;18.13;;;8.20;;
52318;SDS011;38258;51.148;14.068;2024-01-06T03:32:08;21.65;;;9.23;;
52318;SDS011;38258;51.148;14.068;2024-01-06T03:34:35;20.48;;;9.30;;
52318;SDS011;38258;51.148;14.068;2024-01-06T03:37:01;16.75;;;8.73;;
52318;SDS011;38258;51.148;14.068;2024-01-06T03:39:28;19.40;;;8.68;;
52318;SDS011;38258;51.148;14.068;2024-01-06T03:41:55;18.58;;;9.20;;
52318;SDS011;38258;51.148;14.068;2024-01-06T03:44:21;18.60;;;8.95;;
52318;SDS011;38258;51.148;14.068;2024-01-06T03:46:48;17.92;;;8.65;;
52318;SDS011;38258;51.148;14.068;2024-01-06T03:49:16;16.50;;;8.27;;
52318;SDS011;38258;51.148;14.068;2024-01-06T03:51:45;19.50;;;8.50;;
52318;SDS011;38258;51.148;14.068;2024-01-06T03:54:12;17.17;;;8.25;;
52318;SDS011;38258;51.148;14.068;2024-01-06T03:56:39;18.52;;;8.25;;
52318;SDS011;38258;51.148;14.068;2024-01-06T03:59:05;18.33;;;8.35;;
52318;SDS011;38258;51.148;14.068;2024-01-06T04:01:32;20.60;;;8.55;;
52318;SDS011;38258;51.148;14.068;2024-01-06T04:04:01;17.60;;;8.52;;
52318;SDS011;38258;51.148;14.068;2024-01-06T04:06:29;19.63;;;8.57;;
52318;SDS011;38258;51.148;14.068;2024-01-06T04:08:57;17.63;;;8.80;;
52318;SDS011;38258;51.148;14.068;2024-01-06T04:11:24;18.45;;;8.38;;
52318;SDS011;38258;51.148;14.068;2024-01-06T04:13:52;18.17;;;7.85;;
52318;SDS011;38258;51.148;14.068;2024-01-06T04:16:19;18.40;;;8.45;;
52318;SDS011;38258;51.148;14.068;2024-01-06T04:18:46;19.45;;;9.18;;
52318;SDS011;38258;51.148;14.068;2024-01-06T04:21:12;17.13;;;8.40;;
52318;SDS011;38258;51.148;14.068;2024-01-06T04:23:41;18.42;;;8.80;;
52318;SDS011;38258;51.148;14.068;2024-01-06T04:26:07;19.27;;;8.90;;
52318;SDS011;38258;51.148;14.068;2024-01-06T04:28:34;18.63;;;8.95;;
52318;SDS011;38258;51.148;14.068;2024-01-06T04:31:00;17.50;;;8.27;;
52318;SDS011;38258;51.148;14.068;2024-01-06T04:33:27;20.23;;;8.50;;
52318;SDS011;38258;51.148;14.068;2024-01-06T04:35:54;19.13;;;8.50;;
52318;SDS011;38258;51.148;14.068;2024-01-06T04:38:20;18.00;;;8.23;;
52318;SDS011;38258;51.148;14.068;2024-01-06T04:40:48;17.65;;;8.27;;
52318;SDS011;38258;51.148;14.068;2024-01-06T04:43:15;21.05;;;8.45;;
52318;SDS011;38258;51.148;14.068;2024-01-06T04:45:42;18.02;;;8.95;;
52318;SDS011;38258;51.148;14.068;2024-01-06T04:48:09;20.73;;;7.88;;
52318;SDS011;38258;51.148;14.068;2024-01-06T04:50:36;20.63;;;8.30;;
52318;SDS011;38258;51.148;14.068;2024-01-06T04:53:02;20.00;;;8.02;;
52318;SDS011;38258;51.148;14.068;2024-01-06T04:55:29;22.10;;;8.45;;
52318;SDS011;38258;51.148;14.068;2024-01-06T04:57:57;19.92;;;8.13;;
52318;SDS011;38258;51.148;14.068;2024-01-06T05:00:24;18.48;;;8.75;;
52318;SDS011;38258;51.148;14.068;2024-01-06T05:02:51;16.23;;;7.70;;
52318;SDS011;38258;51.148;14.068;2024-01-06T05:05:18;18.80;;;7.60;;
52318;SDS011;38258;51.148;14.068;2024-01-06T05:07:44;14.43;;;7.25;;
52318;SDS011;38258;51.148;14.068;2024-01-06T05:10:11;18.00;;;8.23;;
52318;SDS011;38258;51.148;14.068;2024-01-06T05:12:38;15.45;;;7.68;;
52318;SDS011;38258;51.148;14.068;2024-01-06T05:15:07;17.90;;;8.05;;
52318;SDS011;38258;51.148;14.068;2024-01-06T05:17:35;18.98;;;8.75;;
52318;SDS011;38258;51.148;14.068;2024-01-06T05:20:04;14.95;;;7.68;;
52318;SDS011;38258;51.148;14.068;2024-01-06T05:22:32;19.02;;;8.32;;
52318;SDS011;38258;51.148;14.068;2024-01-06T05:24:58;16.30;;;7.68;;
52318;SDS011;38258;51.148;14.068;2024-01-06T05:27:25;15.50;;;8.57;;
52318;SDS011;38258;51.148;14.068;2024-01-06T05:29:52;18.50;;;8.40;;
52318;SDS011;38258;51.148;14.068;2024-01-06T05:32:20;19.08;;;8.05;;
52318;SDS011;38258;51.148;14.068;2024-01-06T05:34:48;16.15;;;7.53;;
52318;SDS011;38258;51.148;14.068;2024-01-06T05:37:14;16.42;;;7.57;;
52318;SDS011;38258;51.148;14.068;2024-01-06T05:39:41;19.95;;;8.38;;
52318;SDS011;38258;51.148;14.068;2024-01-06T05:42:08;23.70;;;8.73;;
52318;SDS011;38258;51.148;14.068;2024-01-06T05:44:36;16.15;;;8.00;;
52318;SDS011;38258;51.148;14.068;2024-01-06T05:47:03;21.33;;;8.65;;
52318;SDS011;38258;51.148;14.068;2024-01-06T05:49:32;18.02;;;8.02;;
52318;SDS011;38258;51.148;14.068;2024-01-06T05:51:58;17.17;;;8.68;;
52318;SDS011;38258;51.148;14.068;2024-01-06T05:54:25;19.42;;;9.00;;
52318;SDS011;38258;51.148;14.068;2024-01-06T05:56:52;18.38;;;8.57;;
52318;SDS011;38258;51.148;14.068;2024-01-06T05:59:19;16.70;;;8.80;;
52318;SDS011;38258;51.148;14.068;2024-01-06T06:01:45;20.40;;;9.07;;
52318;SDS011;38258;51.148;14.068;2024-01-06T06:04:12;20.30;;;8.95;;
52318;SDS011;38258;51.148;14.068;2024-01-06T06:06:40;22.67;;;9.80;;
52318;SDS011;38258;51.148;14.068;2024-01-06T06:09:07;24.27;;;9.63;;
52318;SDS011;38258;51.148;14.068;2024-01-06T06:11:34;21.20;;;9.85;;
52318;SDS011;38258;51.148;14.068;2024-01-06T06:14:00;19.02;;;9.88;;
52318;SDS011;38258;51.148;14.068;2024-01-06T06:16:28;25.63;;;10.70;;
52318;SDS011;38258;51.148;14.068;2024-01-06T06:18:55;24.65;;;10.98;;
52318;SDS011;38258;51.148;14.068;2024-01-06T06:21:21;24.30;;;10.63;;
52318;SDS011;38258;51.148;14.068;2024-01-06T06:23:49;22.75;;;10.65;;
52318;SDS011;38258;51.148;14.068;2024-01-06T06:26:16;23.52;;;10.20;;
52318;SDS011;38258;51.148;14.068;2024-01-06T06:28:43;25.77;;;11.00;;
52318;SDS011;38258;51.148;14.068;2024-01-06T06:31:12;20.90;;;10.68;;
52318;SDS011;38258;51.148;14.068;2024-01-06T06:33:38;21.48;;;10.07;;
52318;SDS011;38258;51.148;14.068;2024-01-06T06:36:05;21.70;;;11.10;;
52318;SDS011;38258;51.148;14.068;2024-01-06T06:38:32;25.15;;;11.15;;
52318;SDS011;38258;51.148;14.068;2024-01-06T06:41:00;22.17;;;10.95;;
52318;SDS011;38258;51.148;14.068;2024-01-06T06:43:27;22.58;;;11.68;;
52318;SDS011;38258;51.148;14.068;2024-01-06T06:45:53;20.67;;;10.70;;
52318;SDS011;38258;51.148;14.068;2024-01-06T06:48:21;24.33;;;10.60;;
52318;SDS011;38258;51.148;14.068;2024-01-06T06:50:48;25.13;;;10.55;;
52318;SDS011;38258;51.148;14.068;2024-01-06T06:53:16;22.83;;;11.45;;
52318;SDS011;38258;51.148;14.068;2024-01-06T06:55:42;27.10;;;12.57;;
52318;SDS011;38258;51.148;14.068;2024-01-06T06:58:10;32.88;;;13.95;;
52318;SDS011;38258;51.148;14.068;2024-01-06T07:00:37;32.35;;;14.45;;
52318;SDS011;38258;51.148;14.068;2024-01-06T07:03:08;32.00;;;14.13;;
52318;SDS011;38258;51.148;14.068;2024-01-06T07:05:34;27.35;;;12.93;;
52318;SDS011;38258;51.148;14.068;2024-01-06T07:08:01;32.22;;;12.65;;
52318;SDS011;38258;51.148;14.068;2024-01-06T07:10:28;28.38;;;13.43;;
52318;SDS011;38258;51.148;14.068;2024-01-06T07:12:54;28.15;;;13.23;;
52318;SDS011;38258;51.148;14.068;2024-01-06T07:15:22;27.73;;;12.48;;
52318;SDS011;38258;51.148;14.068;2024-01-06T07:17:49;24.45;;;12.20;;
52318;SDS011;38258;51.148;14.068;2024-01-06T07:20:16;28.20;;;12.65;;
52318;SDS011;38258;51.148;14.068;2024-01-06T07:22:43;29.55;;;14.25;;
52318;SDS011;38258;51.148;14.068;2024-01-06T07:25:10;32.70;;;14.88;;
52318;SDS011;38258;51.148;14.068;2024-01-06T07:27:36;40.00;;;17.95;;
52318;SDS011;38258;51.148;14.068;2024-01-06T07:30:04;64.15;;;21.23;;
52318;SDS011;38258;51.148;14.068;2024-01-06T07:32:34;36.17;;;15.02;;
52318;SDS011;38258;51.148;14.068;2024-01-06T07:35:01;31.00;;;14.05;;
52318;SDS011;38258;51.148;14.068;2024-01-06T07:37:28;32.08;;;15.65;;
52318;SDS011;38258;51.148;14.068;2024-01-06T07:39:55;40.63;;;16.85;;
52318;SDS011;38258;51.148;14.068;2024-01-06T07:42:21;31.60;;;14.50;;
52318;SDS011;38258;51.148;14.068;2024-01-06T07:44:48;32.42;;;14.80;;
52318;SDS011;38258;51.148;14.068;2024-01-06T07:47:15;30.73;;;15.02;;
52318;SDS011;38258;51.148;14.068;2024-01-06T07:49:43;35.25;;;15.98;;
52318;SDS011;38258;51.148;14.068;2024-01-06T07:52:09;53.85;;;20.05;;
52318;SDS011;38258;51.148;14.068;2024-01-06T07:54:36;40.88;;;17.25;;
52318;SDS011;38258;51.148;14.068;2024-01-06T07:57:03;44.10;;;17.75;;
52318;SDS011;38258;51.148;14.068;2024-01-06T07:59:30;32.55;;;13.80;;
52318;SDS011;38258;51.148;14.068;2024-01-06T08:01:57;44.30;;;17.88;;
52318;SDS011;38258;51.148;14.068;2024-01-06T08:04:23;73.22;;;29.17;;
52318;SDS011;38258;51.148;14.068;2024-01-06T08:06:51;63.95;;;28.00;;
52318;SDS011;38258;51.148;14.068;2024-01-06T08:09:18;50.83;;;21.40;;
52318;SDS011;38258;51.148;14.068;2024-01-06T08:11:45;31.83;;;15.45;;
52318;SDS011;38258;51.148;14.068;2024-01-06T08:14:13;32.30;;;15.15;;
52318;SDS011;38258;51.148;14.068;2024-01-06T08:16:41;37.45;;;16.45;;
52318;SDS011;38258;51.148;14.068;2024-01-06T08:19:08;30.88;;;14.40;;
52318;SDS011;38258;51.148;14.068;2024-01-06T08:21:35;34.05;;;15.73;;
52318;SDS011;38258;51.148;14.068;2024-01-06T08:24:03;26.65;;;14.40;;
52318;SDS011;38258;51.148;14.068;2024-01-06T08:26:30;27.98;;;13.32;;
52318;SDS011;38258;51.148;14.068;2024-01-06T08:28:57;29.45;;;13.60;;
52318;SDS011;38258;51.148;14.068;2024-01-06T08:31:24;26.60;;;13.63;;
52318;SDS011;38258;51.148;14.068;2024-01-06T08:33:50;33.63;;;16.42;;
52318;SDS011;38258;51.148;14.068;2024-01-06T08:36:17;33.30;;;15.90;;
52318;SDS011;38258;51.148;14.068;2024-01-06T08:38:44;33.38;;;16.23;;
52318;SDS011;38258;51.148;14.068;2024-01-06T08:41:12;36.92;;;18.05;;
52318;SDS011;38258;51.148;14.068;2024-01-06T08:43:39;34.80;;;17.55;;
52318;SDS011;38258;51.148;14.068;2024-01-06T08:46:05;31.50;;;15.70;;
52318;SDS011;38258;51.148;14.068;2024-01-06T08:48:32;33.67;;;16.40;;
52318;SDS011;38258;51.148;14.068;2024-01-06T08:50:58;35.85;;;17.35;;
52318;SDS011;38258;51.148;14.068;2024-01-06T08:53:25;35.33;;;16.83;;
52318;SDS011;38258;51.148;14.068;2024-01-06T08:55:52;32.78;;;16.65;;
52318;SDS011;38258;51.148;14.068;2024-01-06T08:58:20;30.67;;;16.15;;
52318;SDS011;38258;51.148;14.068;2024-01-06T09:00:47;31.35;;;16.50;;
52318;SDS011;38258;51.148;14.068;2024-01-06T09:03:13;41.92;;;20.15;;
52318;SDS011;38258;51.148;14.068;2024-01-06T09:05:40;32.92;;;18.20;;
52318;SDS011;38258;51.148;14.068;2024-01-06T09:08:07;35.58;;;16.65;;
52318;SDS011;38258;51.148;14.068;2024-01-06T09:10:33;34.20;;;17.88;;
52318;SDS011;38258;51.148;14.068;2024-01-06T09:13:01;38.78;;;18.13;;
52318;SDS011;38258;51.148;14.068;2024-01-06T09:15:29;42.70;;;18.92;;
52318;SDS011;38258;51.148;14.068;2024-01-06T09:17:57;25.67;;;11.95;;
52318;SDS011;38258;51.148;14.068;2024-01-06T09:20:23;22.63;;;10.52;;
52318;SDS011;38258;51.148;14.068;2024-01-06T09:22:50;24.35;;;11.10;;
52318;SDS011;38258;51.148;14.068;2024-01-06T09:25:16;20.50;;;9.73;;
52318;SDS011;38258;51.148;14.068;2024-01-06T09:27:43;22.02;;;10.63;;
52318;SDS011;38258;51.148;14.068;2024-01-06T09:30:10;23.40;;;11.55;;
52318;SDS011;38258;51.148;14.068;2024-01-06T09:32:38;20.75;;;10.38;;
52318;SDS011;38258;51.148;14.068;2024-01-06T09:35:05;25.13;;;11.32;;
52318;SDS011;38258;51.148;14.068;2024-01-06T09:37:32;19.58;;;10.45;;
52318;SDS011;38258;51.148;14.068;2024-01-06T09:39:59;20.75;;;11.00;;
52318;SDS011;38258;51.148;14.068;2024-01-06T09:42:25;22.83;;;11.73;;
52318;SDS011;38258;51.148;14.068;2024-01-06T09:44:52;23.23;;;10.65;;
52318;SDS011;38258;51.148;14.068;2024-01-06T09:47:19;19.63;;;9.82;;
52318;SDS011;38258;51.148;14.068;2024-01-06T09:49:50;19.48;;;10.57;;
52318;SDS011;38258;51.148;14.068;2024-01-06T09:52:19;17.77;;;10.10;;
52318;SDS011;38258;51.148;14.068;2024-01-06T09:54:50;19.73;;;10.48;;
52318;SDS011;38258;51.148;14.068;2024-01-06T09:57:18;21.13;;;9.75;;
52318;SDS011;38258;51.148;14.068;2024-01-06T09:59:46;19.40;;;9.77;;
52318;SDS011;38258;51.148;14.068;2024-01-06T10:02:14;21.83;;;10.20;;
52318;SDS011;38258;51.148;14.068;2024-01-06T10:04:42;24.13;;;11.40;;
52318;SDS011;38258;51.148;14.068;2024-01-06T10:07:10;24.25;;;12.05;;
52318;SDS011;38258;51.148;14.068;2024-01-06T10:09:39;24.10;;;11.82;;
52318;SDS011;38258;51.148;14.068;2024-01-06T10:12:07;28.67;;;12.82;;
52318;SDS011;38258;51.148;14.068;2024-01-06T10:14:34;26.58;;;12.68;;
52318;SDS011;38258;51.148;14.068;2024-01-06T10:17:01;24.38;;;12.15;;
52318;SDS011;38258;51.148;14.068;2024-01-06T10:19:27;20.60;;;9.70;;
52318;SDS011;38258;51.148;14.068;2024-01-06T10:21:54;16.95;;;9.40;;
52318;SDS011;38258;51.148;14.068;2024-01-06T10:24:22;20.40;;;9.88;;
52318;SDS011;38258;51.148;14.068;2024-01-06T10:26:49;19.35;;;9.82;;
52318;SDS011;38258;51.148;14.068;2024-01-06T10:29:16;18.38;;;9.25;;
52318;SDS011;38258;51.148;14.068;2024-01-06T10:31:42;23.67;;;11.68;;
52318;SDS011;38258;51.148;14.068;2024-01-06T10:34:09;20.58;;;9.65;;
52318;SDS011;38258;51.148;14.068;2024-01-06T10:36:36;20.35;;;9.85;;
52318;SDS011;38258;51.148;14.068;2024-01-06T10:39:02;17.48;;;9.15;;
52318;SDS011;38258;51.148;14.068;2024-01-06T10:41:31;21.98;;;10.25;;
52318;SDS011;38258;51.148;14.068;2024-01-06T10:43:58;21.05;;;10.27;;
52318;SDS011;38258;51.148;14.068;2024-01-06T10:46:27;21.10;;;9.90;;
52318;SDS011;38258;51.148;14.068;2024-01-06T10:48:57;21.90;;;9.45;;
52318;SDS011;38258;51.148;14.068;2024-01-06T10:51:25;21.42;;;9.05;;
52318;SDS011;38258;51.148;14.068;2024-01-06T10:53:54;21.13;;;9.52;;
52318;SDS011;38258;51.148;14.068;2024-01-06T10:56:22;19.67;;;9.25;;
52318;SDS011;38258;51.148;14.068;2024-01-06T10:58:53;23.25;;;10.00;;
52318;SDS011;38258;51.148;14.068;2024-01-06T11:01:20;22.25;;;10.40;;
52318;SDS011;38258;51.148;14.068;2024-01-06T11:03:49;23.73;;;9.13;;
52318;SDS011;38258;51.148;14.068;2024-01-06T11:06:16;22.13;;;10.10;;
52318;SDS011;38258;51.148;14.068;2024-01-06T11:08:46;20.30;;;9.20;;
52318;SDS011;38258;51.148;14.068;2024-01-06T11:11:17;22.02;;;9.90;;
52318;SDS011;38258;51.148;14.068;2024-01-06T11:13:44;23.20;;;10.40;;
52318;SDS011;38258;51.148;14.068;2024-01-06T11:16:13;29.13;;;12.23;;
52318;SDS011;38258;51.148;14.068;2024-01-06T11:19:00;49.45;;;26.70;;
52318;SDS011;38258;51.148;14.068;2024-01-06T11:21:27;29.38;;;12.88;;
52318;SDS011;38258;51.148;14.068;2024-01-06T11:26:52;30.95;;;13.20;;
52318;SDS011;38258;51.148;14.068;2024-01-06T11:29:21;29.05;;;12.20;;
52318;SDS011;38258;51.148;14.068;2024-01-06T11:34:48;28.52;;;11.35;;
52318;SDS011;38258;51.148;14.068;2024-01-06T11:37:19;36.15;;;11.57;;
52318;SDS011;38258;51.148;14.068;2024-01-06T11:39:49;29.17;;;11.60;;
52318;SDS011;38258;51.148;14.068;2024-01-06T11:42:16;26.77;;;11.57;;
52318;SDS011;38258;51.148;14.068;2024-01-06T11:44:43;25.92;;;11.40;;
52318;SDS011;38258;51.148;14.068;2024-01-06T11:47:11;27.42;;;11.45;;
52318;SDS011;38258;51.148;14.068;2024-01-06T11:49:41;24.40;;;10.07;;
52318;SDS011;38258;51.148;14.068;2024-01-06T11:52:11;27.98;;;10.85;;
52318;SDS011;38258;51.148;14.068;2024-01-06T11:54:38;29.00;;;12.07;;
52318;SDS011;38258;51.148;14.068;2024-01-06T11:57:07;41.20;;;17.17;;
52318;SDS011;38258;51.148;14.068;2024-01-06T11:59:34;32.55;;;12.20;;
52318;SDS011;38258;51.148;14.068;2024-01-06T12:02:01;30.65;;;12.85;;
52318;SDS011;38258;51.148;14.068;2024-01-06T12:04:28;26.00;;;11.20;;
52318;SDS011;38258;51.148;14.068;2024-01-06T12:07:05;27.60;;;11.82;;
52318;SDS011;38258;51.148;14.068;2024-01-06T12:09:33;26.10;;;11.73;;
52318;SDS011;38258;51.148;14.068;2024-01-06T12:12:03;26.75;;;11.93;;
52318;SDS011;38258;51.148;14.068;2024-01-06T12:14:31;34.42;;;13.88;;
52318;SDS011;38258;51.148;14.068;2024-01-06T12:16:58;27.73;;;11.82;;
52318;SDS011;38258;51.148;14.068;2024-01-06T12:19:28;32.80;;;12.02;;
52318;SDS011;38258;51.148;14.068;2024-01-06T12:21:55;29.20;;;12.30;;
52318;SDS011;38258;51.148;14.068;2024-01-06T12:24:23;34.47;;;11.45;;
52318;SDS011;38258;51.148;14.068;2024-01-06T12:26:50;29.05;;;11.60;;
52318;SDS011;38258;51.148;14.068;2024-01-06T12:29:17;25.73;;;11.13;;
52318;SDS011;38258;51.148;14.068;2024-01-06T12:31:44;31.90;;;11.70;;
52318;SDS011;38258;51.148;14.068;2024-01-06T12:34:11;39.38;;;18.38;;
52318;SDS011;38258;51.148;14.068;2024-01-06T12:36:38;37.30;;;15.13;;
52318;SDS011;38258;51.148;14.068;2024-01-06T12:39:06;37.75;;;14.43;;
52318;SDS011;38258;51.148;14.068;2024-01-06T12:41:39;32.45;;;13.23;;
52318;SDS011;38258;51.148;14.068;2024-01-06T12:44:07;28.02;;;12.85;;
52318;SDS011;38258;51.148;14.068;2024-01-06T12:46:33;33.65;;;12.88;;
52318;SDS011;38258;51.148;14.068;2024-01-06T12:49:00;39.00;;;13.75;;
52318;SDS011;38258;51.148;14.068;2024-01-06T12:51:27;39.75;;;16.50;;
52318;SDS011;38258;51.148;14.068;2024-01-06T12:53:54;35.78;;;15.55;;
52318;SDS011;38258;51.148;14.068;2024-01-06T12:56:21;39.47;;;14.77;;
52318;SDS011;38258;51.148;14.068;2024-01-06T12:58:49;40.05;;;16.77;;
52318;SDS011;38258;51.148;14.068;2024-01-06T13:01:16;89.68;;;37.55;;
52318;SDS011;38258;51.148;14.068;2024-01-06T13:03:43;50.10;;;18.10;;
52318;SDS011;38258;51.148;14.068;2024-01-06T13:06:10;35.05;;;13.10;;
52318;SDS011;38258;51.148;14.068;2024-01-06T13:08:36;49.05;;;18.42;;
52318;SDS011;38258;51.148;14.068;2024-01-06T13:11:03;38.55;;;14.27;;
52318;SDS011;38258;51.148;14.068;2024-01-06T13:13:31;54.85;;;16.50;;
52318;SDS011;38258;51.148;14.068;2024-01-06T13:16:01;60.85;;;23.05;;
52318;SDS011;38258;51.148;14.068;2024-01-06T13:18:28;45.25;;;15.63;;
52318;SDS011;38258;51.148;14.068;2024-01-06T13:20:55;44.88;;;15.25;;
52318;SDS011;38258;51.148;14.068;2024-01-06T13:23:21;51.03;;;17.13;;
52318;SDS011;38258;51.148;14.068;2024-01-06T13:25:48;58.85;;;19.00;;
52318;SDS011;38258;51.148;14.068;2024-01-06T13:28:15;46.83;;;17.38;;
52318;SDS011;38258;51.148;14.068;2024-01-06T13:30:42;46.03;;;17.17;;
52318;SDS011;38258;51.148;14.068;2024-01-06T13:33:10;47.97;;;16.35;;
52318;SDS011;38258;51.148;14.068;2024-01-06T13:35:37;47.08;;;15.57;;
52318;SDS011;38258;51.148;14.068;2024-01-06T13:38:04;47.08;;;16.52;;
52318;SDS011;38258;51.148;14.068;2024-01-06T13:40:30;57.55;;;17.80;;
52318;SDS011;38258;51.148;14.068;2024-01-06T13:42:57;47.38;;;16.85;;
52318;SDS011;38258;51.148;14.068;2024-01-06T13:45:24;59.83;;;16.67;;
52318;SDS011;38258;51.148;14.068;2024-01-06T13:47:51;48.65;;;17.55;;
52318;SDS011;38258;51.148;14.068;2024-01-06T13:50:19;44.97;;;16.60;;
52318;SDS011;38258;51.148;14.068;2024-01-06T13:52:47;67.90;;;17.15;;
52318;SDS011;38258;51.148;14.068;2024-01-06T13:55:14;53.25;;;17.27;;
52318;SDS011;38258;51.148;14.068;2024-01-06T13:57:41;61.80;;;19.02;;
52318;SDS011;38258;51.148;14.068;2024-01-06T14:00:08;49.83;;;17.50;;
52318;SDS011;38258;51.148;14.068;2024-01-06T14:02:36;60.38;;;19.42;;
52318;SDS011;38258;51.148;14.068;2024-01-06T14:05:04;53.17;;;19.75;;
52318;SDS011;38258;51.148;14.068;2024-01-06T14:07:34;44.65;;;16.88;;
52318;SDS011;38258;51.148;14.068;2024-01-06T14:10:03;50.58;;;18.52;;
52318;SDS011;38258;51.148;14.068;2024-01-06T14:12:31;54.28;;;18.48;;
52318;SDS011;38258;51.148;14.068;2024-01-06T14:14:58;58.58;;;19.05;;
52318;SDS011;38258;51.148;14.068;2024-01-06T14:17:26;51.55;;;20.25;;
52318;SDS011;38258;51.148;14.068;2024-01-06T14:19:53;56.25;;;18.80;;
52318;SDS011;38258;51.148;14.068;2024-01-06T14:22:19;59.55;;;20.08;;